METAR Data
IDs: Format: Raw Decoded Include TAF

Data at: 0829 UTC 01 Aug 2021

KBEH 010753Z AUTO 32005KT 5SM HZ FEW048 SCT060 22/18 A2990 RMK AO2 SLP122 T02170178
KBEH 010653Z AUTO 31008KT 7SM FEW039 FEW065 22/18 A2989 RMK AO2 SLP119 T02220183
KBEH 010553Z AUTO 29008KT 10SM SCT090 22/18 A2990 RMK AO2 SLP120 T02220183 10233 20167 56009
KBEH 010453Z AUTO 00000KT 9SM FEW050 SCT060 BKN075 18/15 A2991 RMK AO2 SLP124 T01780150 402500100
KBEH 010353Z AUTO 11003KT 10SM CLR 17/15 A2991 RMK AO2 SLP125 T01720150
KBEH 010253Z AUTO 00000KT 9SM CLR 18/15 A2993 RMK AO2 SLP131 T01780150 58005
KBEH 010153Z AUTO 00000KT 10SM CLR 19/15 A2993 RMK AO2 SLP135 T01890150
KBEH 010053Z AUTO 00000KT 10SM CLR 21/14 A2994 RMK AO2 SLP136 T02110144
KBEH 312353Z AUTO 30005KT 10SM CLR 23/14 A2994 RMK AO2 SLP137 T02330139 10250 20222 56009
KBEH 312253Z AUTO 29006KT 10SM CLR 24/13 A2995 RMK AO2 SLP139 T02440128
KBEH 312153Z AUTO 28005KT 10SM CLR 25/12 A2996 RMK AO2 SLP142 T02500122
KBEH 312053Z AUTO VRB03KT 10SM CLR 23/12 A2997 RMK AO2 SLP147 T02330117 57019
KBEH 311953Z AUTO 28008KT 10SM CLR 23/12 A2999 RMK AO2 SLP154 T02330122
KBEH 311853Z AUTO 30009KT 10SM CLR 23/12 A3001 RMK AO2 SLP159 T02330122
KBEH 311753Z AUTO 28008KT 10SM CLR 23/13 A3003 RMK AO2 SLP166 T02330133 10233 20122 58005
KBEH 311653Z AUTO 30007KT 10SM CLR 23/12 A3005 RMK AO2 SLP172 T02280117
KBEH 311553Z AUTO 29006KT 10SM CLR 22/11 A3005 RMK AO2 SLP173 T02220111
KBEH 311453Z AUTO 00000KT 10SM CLR 22/11 A3004 RMK AO2 SLP170 T02220106 56003
KBEH 311353Z AUTO 00000KT 10SM CLR 20/13 A3005 RMK AO2 SLP173 T02000128
KBEH 311253Z AUTO 00000KT 10SM CLR 17/14 A3005 RMK AO2 SLP172 T01670139
KBEH 311053Z AUTO 00000KT 4SM BR CLR 10/09 A3006 RMK AO2 SLP179 T01000094
KBEH 311013Z AUTO 00000KT 10SM CLR 11/09 A3005 RMK AO2 T01060094
KBEH 311006Z AUTO 00000KT 2 1/2SM BR CLR 11/09 A3005 RMK AO2 T01060094
KBEH 311003Z AUTO 00000KT 1 1/4SM BR CLR 11/09 A3005 RMK AO2 T01060094
KBEH 310956Z AUTO 00000KT 1 1/2SM BR CLR 11/10 A3005 RMK AO2 VIS 1/2V5 T01110100
KBEH 310831Z AUTO 00000KT 2SM BR CLR 11/10 A3007 RMK AO2 VIS 3/4V5 T01110100
KBEH 310822Z AUTO 10003KT 1SM BR CLR 11/10 A3007 RMK AO2 VIS 1/2V5 T01110100
KBEH 310811Z AUTO 00000KT 3/4SM BR VV002 12/11 A3008 RMK AO2 T01170106
KBEH 310809Z AUTO 00000KT 1 1/2SM BR CLR 12/11 A3008 RMK AO2 T01170106
KBEH 310739Z AUTO 00000KT 5SM BR CLR 12/11 A3008 RMK AO2 T01220111
KBEH 310653Z AUTO 00000KT 10SM CLR 13/12 A3008 RMK AO2 SLP185 T01280117
KBEH 310553Z AUTO 00000KT 10SM CLR 14/12 A3008 RMK AO2 SLP185 T01390122 10194 20133 56011
KBEH 310453Z AUTO 00000KT 10SM CLR 14/12 A3010 RMK AO2 SLP190 T01440122 402220144
KBEH 310353Z AUTO 00000KT 10SM CLR 18/12 A3010 RMK AO2 SLP190 T01780117
KBEH 310253Z AUTO 00000KT 10SM CLR 19/13 A3012 RMK AO2 SLP197 T01890128 55000
KBEH 310153Z AUTO VRB03KT 10SM CLR 19/13 A3012 RMK AO2 SLP196 T01890128
KBEH 310053Z AUTO 32003KT 10SM CLR 19/13 A3011 RMK AO2 SLP194 T01890128
KBEH 302353Z AUTO 32006KT 10SM CLR 19/13 A3012 RMK AO2 SLP197 T01940128 10222 20194 51000
KBEH 302253Z AUTO 33007KT 280V350 10SM CLR 20/13 A3011 RMK AO2 SLP196 T02000128
KBEH 302153Z AUTO VRB06KT 10SM CLR 21/13 A3012 RMK AO2 SLP198 T02060128
KBEH 302053Z AUTO 32006KT 10SM CLR 21/12 A3012 RMK AO2 SLP197 T02060122